Time;durP1;ratioP1;P1;durP2;ratioP2;P2;SDS_P1;SDS_P2;PMS_P1;PMS_P2;Temp;Humidity;BMP_temperature;BMP_pressure;BME280_temperature;BME280_humidity;BME280_pressure;Samples;Min_cycle;Max_cycle;Signal;HPM_P1;HPM_P2
2023/03/26 00:01:20;;;;;;;1.25;0.40;;;;;;;6.11;100.00;98199.09;4484950;31;20473;-64
2023/03/26 00:03:52;;;;;;;0.73;0.30;;;;;;;6.00;100.00;98192.16;4484486;31;20359;-64
2023/03/26 00:06:21;;;;;;;0.62;0.30;;;;;;;5.94;100.00;98204.78;4484651;32;20164;-65
2023/03/26 00:08:50;;;;;;;0.28;0.28;;;;;;;5.96;100.00;98195.91;4484464;31;20148;-64
2023/03/26 00:11:19;;;;;;;0.95;0.30;;;;;;;6.04;100.00;98201.38;4483244;32;20358;-64
2023/03/26 00:13:46;;;;;;;0.98;0.30;;;;;;;6.08;100.00;98198.50;4484354;31;20127;-64
2023/03/26 00:16:17;;;;;;;0.20;0.20;;;;;;;6.13;100.00;98196.34;4484538;32;20089;-65
2023/03/26 00:18:44;;;;;;;0.43;0.30;;;;;;;6.07;100.00;98197.69;4482983;32;20127;-64
2023/03/26 00:21:15;;;;;;;0.32;0.30;;;;;;;6.00;100.00;98194.75;4484286;31;20121;-64
2023/03/26 00:23:42;;;;;;;5.57;0.40;;;;;;;5.85;100.00;98199.34;4484193;31;20149;-64
2023/03/26 00:26:10;;;;;;;1.12;0.50;;;;;;;5.84;100.00;98204.66;4484297;32;20140;-64
2023/03/26 00:28:39;;;;;;;1.15;0.50;;;;;;;5.89;100.00;98191.31;4484006;31;20591;-64
2023/03/26 00:31:09;;;;;;;2.45;0.52;;;;;;;5.90;100.00;98198.16;4484259;31;20167;-64
2023/03/26 00:33:37;;;;;;;0.50;0.40;;;;;;;5.94;100.00;98197.00;4482834;32;20513;-64
2023/03/26 00:36:08;;;;;;;0.30;0.30;;;;;;;5.95;100.00;98190.81;4484122;31;20097;-64
2023/03/26 00:38:37;;;;;;;1.75;0.50;;;;;;;5.95;100.00;98193.41;4484131;32;20084;-64
2023/03/26 00:41:16;;;;;;;0.50;0.32;;;;;;;5.92;100.00;98196.25;4484110;32;20115;-64
2023/03/26 00:43:47;;;;;;;0.40;0.40;;;;;;;5.91;100.00;98192.03;4484059;32;20137;-64
2023/03/26 00:46:16;;;;;;;5.37;0.52;;;;;;;5.92;100.00;98183.25;4483732;32;20124;-64
2023/03/26 00:48:45;;;;;;;0.68;0.50;;;;;;;5.90;100.00;98185.16;4483934;31;20656;-64
2023/03/26 00:51:14;;;;;;;1.80;0.50;;;;;;;5.91;100.00;98181.63;4482702;32;20084;-64
2023/03/26 00:53:43;;;;;;;0.68;0.57;;;;;;;5.92;100.00;98175.47;4483936;31;20396;-64
2023/03/26 00:56:11;;;;;;;2.17;0.70;;;;;;;5.97;100.00;98174.19;4483753;31;20143;-64
2023/03/26 00:58:39;;;;;;;1.62;0.60;;;;;;;6.02;100.00;98171.22;4483602;31;20088;-64
2023/03/26 01:01:13;;;;;;;0.70;0.60;;;;;;;6.00;100.00;98170.53;4483774;31;20122;-64
2023/03/26 01:03:42;;;;;;;0.93;0.62;;;;;;;5.95;100.00;98173.47;4486207;32;20090;-64
2023/03/26 01:06:34;;;;;;;1.12;0.60;;;;;;;5.91;100.00;98173.84;4484579;32;20141;-64
2023/03/26 01:09:12;;;;;;;0.85;0.35;;;;;;;5.90;100.00;98170.38;4485981;31;20076;-64
2023/03/26 01:11:39;;;;;;;3.83;0.50;;;;;;;5.96;100.00;98177.69;4484700;32;20088;-64
2023/03/26 01:14:06;;;;;;;1.15;0.50;;;;;;;5.94;100.00;98173.59;4485796;31;20876;-64
2023/03/26 01:16:38;;;;;;;1.52;0.47;;;;;;;5.96;100.00;98171.69;4485755;31;20111;-64
2023/03/26 01:19:19;;;;;;;1.10;0.35;;;;;;;5.96;100.00;98179.47;4484864;32;20148;-64
2023/03/26 01:21:46;;;;;;;1.17;0.45;;;;;;;6.01;100.00;98169.56;4472029;32;20473;-64
2023/03/26 01:24:14;;;;;;;0.82;0.45;;;;;;;6.00;100.00;98175.72;4485973;31;20096;-64
2023/03/26 01:27:03;;;;;;;0.62;0.20;;;;;;;6.04;100.00;98177.13;4485790;31;20170;-64
2023/03/26 01:29:34;;;;;;;0.55;0.30;;;;;;;6.02;100.00;98186.81;4485753;31;20084;-64
2023/03/26 01:32:14;;;;;;;1.05;0.32;;;;;;;6.06;100.00;98182.19;4485952;32;20152;-64
2023/03/26 01:35:00;;;;;;;0.37;0.20;;;;;;;6.00;100.00;98183.53;4485731;31;20144;-64
2023/03/26 01:37:33;;;;;;;0.10;0.10;;;;;;;6.01;100.00;98180.81;4485973;32;20163;-64
2023/03/26 01:40:06;;;;;;;0.30;0.20;;;;;;;5.98;100.00;98175.84;4485785;31;20505;-64
2023/03/26 01:42:56;;;;;;;0.30;0.30;;;;;;;5.94;100.00;98174.41;4484664;32;20080;-64
2023/03/26 01:45:29;;;;;;;0.77;0.40;;;;;;;5.84;100.00;98176.94;4485561;31;20158;-64
2023/03/26 01:47:56;;;;;;;0.80;0.30;;;;;;;5.81;100.00;98169.38;4484678;32;20142;-64
2023/03/26 01:50:24;;;;;;;0.50;0.30;;;;;;;5.76;100.00;98170.69;4484443;32;20088;-64
2023/03/26 01:52:51;;;;;;;0.43;0.30;;;;;;;5.69;100.00;98178.13;4485803;31;20410;-64
2023/03/26 01:55:19;;;;;;;1.17;0.35;;;;;;;5.67;100.00;98172.22;4485258;31;20401;-64
2023/03/26 01:58:18;;;;;;;1.83;0.40;;;;;;;5.66;100.00;98175.75;4485501;32;20545;-65
2023/03/26 02:00:52;;;;;;;0.40;0.20;;;;;;;5.61;100.00;98177.91;4484142;32;20101;-64
2023/03/26 02:03:23;;;;;;;0.40;0.30;;;;;;;5.59;100.00;98179.81;4484337;32;20123;-64
2023/03/26 02:06:00;;;;;;;0.57;0.30;;;;;;;5.55;100.00;98179.19;4485517;31;20088;-64
2023/03/26 02:08:37;;;;;;;0.57;0.32;;;;;;;5.50;100.00;98171.75;4485881;31;20084;-64
2023/03/26 02:11:10;;;;;;;0.52;0.40;;;;;;;5.46;100.00;98175.53;4485402;31;20164;-64
2023/03/26 02:13:39;;;;;;;1.23;0.73;;;;;;;5.44;100.00;98172.25;4483979;32;20092;-64
2023/03/26 02:16:12;;;;;;;0.57;0.40;;;;;;;5.44;100.00;98171.44;4485179;32;20202;-64
2023/03/26 02:18:41;;;;;;;0.45;0.30;;;;;;;5.41;100.00;98172.50;4485384;31;20135;-64
2023/03/26 02:21:18;;;;;;;0.20;0.20;;;;;;;5.40;100.00;98176.03;4485418;31;20113;-64
2023/03/26 02:24:02;;;;;;;0.43;0.28;;;;;;;5.47;100.00;98174.59;4485452;31;20089;-64
2023/03/26 02:26:32;;;;;;;0.13;0.13;;;;;;;5.45;100.00;98179.09;4484971;31;20148;-64
2023/03/26 02:29:03;;;;;;;0.40;0.32;;;;;;;5.48;100.00;98171.06;4485659;31;20096;-64
2023/03/26 02:31:30;;;;;;;1.60;0.40;;;;;;;5.41;100.00;98162.09;4485238;31;20164;-65
2023/03/26 02:33:58;;;;;;;0.50;0.30;;;;;;;5.36;100.00;98173.78;4485402;32;20533;-64
2023/03/26 02:36:26;;;;;;;0.95;0.50;;;;;;;5.31;100.00;98174.13;4485122;31;20127;-64
2023/03/26 02:38:56;;;;;;;3.72;0.32;;;;;;;5.28;100.00;98171.78;4485740;31;20157;-64
2023/03/26 02:41:24;;;;;;;0.77;0.30;;;;;;;5.30;100.00;98169.91;4485252;32;20100;-64
2023/03/26 02:43:52;;;;;;;2.47;0.30;;;;;;;5.21;100.00;98165.41;4485670;31;20107;-64
2023/03/26 02:46:20;;;;;;;0.45;0.35;;;;;;;5.12;100.00;98165.19;4485202;31;20096;-64
2023/03/26 02:48:48;;;;;;;0.70;0.30;;;;;;;5.01;100.00;98166.94;4485692;32;20126;-64
2023/03/26 02:51:17;;;;;;;0.60;0.25;;;;;;;5.00;100.00;98158.31;4485608;31;20104;-64
2023/03/26 02:53:44;;;;;;;0.52;0.30;;;;;;;5.02;100.00;98153.03;4485577;32;20106;-64
2023/03/26 02:56:13;;;;;;;0.50;0.40;;;;;;;5.00;100.00;98166.13;4485448;32;20112;-64
2023/03/26 02:58:41;;;;;;;0.40;0.40;;;;;;;5.01;100.00;98161.75;4485383;31;20536;-64
2023/03/26 03:01:08;;;;;;;1.20;0.32;;;;;;;4.93;100.00;98160.53;4485429;31;20092;-64
2023/03/26 03:03:36;;;;;;;1.65;0.43;;;;;;;4.90;100.00;98167.75;4485519;31;20116;-64
2023/03/26 03:06:05;;;;;;;0.65;0.40;;;;;;;4.94;100.00;98170.00;4485202;31;20096;-64
2023/03/26 03:08:32;;;;;;;1.73;0.52;;;;;;;4.94;100.00;98169.19;4485121;32;20160;-64
2023/03/26 03:11:03;;;;;;;0.40;0.30;;;;;;;4.96;100.00;98162.09;4485157;32;20119;-64
2023/03/26 03:13:30;;;;;;;1.33;0.50;;;;;;;4.98;100.00;98157.59;4483874;32;20119;-64
2023/03/26 03:15:57;;;;;;;2.55;0.40;;;;;;;4.99;100.00;98156.66;4484787;31;20434;-64
2023/03/26 03:18:25;;;;;;;0.93;0.35;;;;;;;4.92;100.00;98168.44;4484769;31;20108;-64
2023/03/26 03:20:52;;;;;;;0.95;0.30;;;;;;;4.86;100.00;98161.12;4485151;31;20163;-64
2023/03/26 03:23:20;;;;;;;0.75;0.52;;;;;;;4.87;100.00;98167.97;4485105;32;20084;-64
2023/03/26 03:25:49;;;;;;;1.60;0.50;;;;;;;4.86;100.00;98171.50;4483984;32;20120;-64
2023/03/26 03:28:18;;;;;;;2.80;0.60;;;;;;;5.02;100.00;98169.41;4484837;31;20088;-64
2023/03/26 03:30:45;;;;;;;1.15;0.60;;;;;;;5.10;100.00;98150.66;4484791;31;20111;-64
2023/03/26 03:33:13;;;;;;;1.15;0.57;;;;;;;4.98;100.00;98165.38;4485183;31;20169;-64
2023/03/26 03:35:41;;;;;;;0.85;0.50;;;;;;;5.04;100.00;98158.91;4484768;31;20148;-64
2023/03/26 03:38:09;;;;;;;1.10;0.60;;;;;;;4.99;100.00;98161.84;4484952;32;20149;-64
2023/03/26 03:40:38;;;;;;;1.62;0.50;;;;;;;4.97;100.00;98164.56;4484943;31;20104;-64
2023/03/26 03:43:06;;;;;;;1.35;0.60;;;;;;;4.92;100.00;98165.84;4484841;31;20924;-64
2023/03/26 03:45:35;;;;;;;3.28;0.40;;;;;;;4.57;100.00;98170.19;4484914;31;20529;-64
2023/03/26 03:48:04;;;;;;;1.48;0.40;;;;;;;4.49;100.00;98169.09;4484910;31;20544;-64
2023/03/26 03:50:32;;;;;;;0.47;0.40;;;;;;;4.52;100.00;98169.66;4484807;31;20092;-64
2023/03/26 03:53:04;;;;;;;0.80;0.43;;;;;;;4.46;100.00;98158.94;4484951;31;20107;-64
2023/03/26 03:55:32;;;;;;;0.73;0.40;;;;;;;4.46;100.00;98164.13;4485005;31;20520;-64
2023/03/26 03:58:00;;;;;;;2.37;0.47;;;;;;;4.51;100.00;98164.59;4484528;31;20126;-64
2023/03/26 04:00:29;;;;;;;4.32;0.50;;;;;;;4.65;100.00;98168.75;4484940;31;20135;-64
2023/03/26 04:02:57;;;;;;;1.83;0.50;;;;;;;4.72;100.00;98167.38;4484817;31;20097;-64
2023/03/26 04:05:25;;;;;;;1.90;0.30;;;;;;;4.80;100.00;98172.81;4484706;32;20111;-64
2023/03/26 04:07:52;;;;;;;0.10;0.10;;;;;;;4.91;100.00;98170.22;4484702;31;20135;-64
2023/03/26 04:10:22;;;;;;;1.73;0.30;;;;;;;5.09;100.00;98178.38;4484874;31;20163;-64
2023/03/26 04:12:51;;;;;;;2.62;0.32;;;;;;;5.24;100.00;98175.53;4469015;32;20138;-64
2023/03/26 04:15:18;;;;;;;0.45;0.25;;;;;;;5.24;100.00;98172.94;4482601;32;20095;-64
2023/03/26 04:17:47;;;;;;;0.43;0.30;;;;;;;5.30;100.00;98169.91;4484087;31;20092;-64
2023/03/26 04:20:14;;;;;;;0.73;0.40;;;;;;;5.31;100.00;98166.34;4484586;32;20152;-64
2023/03/26 04:22:43;;;;;;;3.47;0.40;;;;;;;5.26;100.00;98171.09;4484384;31;20101;-64
2023/03/26 04:25:12;;;;;;;0.40;0.30;;;;;;;5.32;100.00;98168.00;4484468;31;20123;-64
2023/03/26 04:27:42;;;;;;;0.52;0.40;;;;;;;5.33;100.00;98165.28;4483926;31;20615;-64
2023/03/26 04:30:14;;;;;;;3.20;0.37;;;;;;;5.35;100.00;98162.56;4484458;31;20480;-64
2023/03/26 04:32:43;;;;;;;0.47;0.20;;;;;;;5.44;100.00;98167.06;4483044;32;20156;-64
2023/03/26 04:35:13;;;;;;;0.30;0.20;;;;;;;5.48;100.00;98163.28;4484223;31;20131;-64
2023/03/26 04:37:43;;;;;;;0.75;0.30;;;;;;;5.49;100.00;98170.09;4484974;32;20151;-64
2023/03/26 04:40:18;;;;;;;0.85;0.32;;;;;;;5.52;100.00;98169.03;4485062;32;20441;-64
2023/03/26 04:42:46;;;;;;;1.00;0.40;;;;;;;5.48;100.00;98171.06;4486312;32;20072;-64
2023/03/26 04:45:16;;;;;;;1.58;0.50;;;;;;;5.42;100.00;98174.16;4486438;31;20462;-64
2023/03/26 04:47:45;;;;;;;1.83;0.70;;;;;;;5.43;100.00;98173.19;4485950;31;20115;-64
2023/03/26 04:50:14;;;;;;;0.57;0.40;;;;;;;5.46;100.00;98170.34;4486266;32;20133;-64
2023/03/26 04:52:42;;;;;;;0.45;0.30;;;;;;;5.57;100.00;98181.69;4486007;31;20119;-64
2023/03/26 04:55:30;;;;;;;2.33;0.75;;;;;;;5.60;100.00;98181.44;4486391;32;20155;-64
2023/03/26 04:58:04;;;;;;;0.62;0.40;;;;;;;5.70;100.00;98182.38;4484400;32;20088;-64
2023/03/26 05:00:34;;;;;;;0.22;0.20;;;;;;;5.77;100.00;98183.56;4486263;31;20123;-64
2023/03/26 05:03:01;;;;;;;1.87;0.60;;;;;;;5.95;100.00;98183.03;4486199;31;20081;-64
2023/03/26 05:05:28;;;;;;;0.35;0.20;;;;;;;6.14;100.00;98179.81;4486151;31;20108;-64
2023/03/26 05:07:56;;;;;;;1.98;0.30;;;;;;;6.24;100.00;98182.47;4486187;31;20100;-64
2023/03/26 05:10:25;;;;;;;0.65;0.30;;;;;;;6.40;100.00;98188.09;4480761;31;168321;-64
2023/03/26 05:12:53;;;;;;;0.65;0.40;;;;;;;6.60;100.00;98185.66;4486084;31;20114;-65
2023/03/26 05:15:21;;;;;;;2.40;0.57;;;;;;;6.85;99.97;98182.66;4486080;31;20120;-64
2023/03/26 05:17:50;;;;;;;2.53;0.55;;;;;;;7.04;97.94;98188.94;4485798;31;20158;-64
2023/03/26 05:20:22;;;;;;;0.80;0.30;;;;;;;7.15;97.65;98183.66;4486103;31;20096;-65
2023/03/26 05:22:50;;;;;;;0.80;0.47;;;;;;;7.25;97.12;98188.88;4484821;32;20088;-65
2023/03/26 05:25:18;;;;;;;0.40;0.20;;;;;;;7.20;97.73;98186.69;4485978;31;20135;-65
2023/03/26 05:27:45;;;;;;;0.98;0.35;;;;;;;7.24;96.82;98182.88;4485781;31;20100;-65
2023/03/26 05:30:16;;;;;;;1.37;0.40;;;;;;;7.34;96.34;98182.06;4485795;31;20092;-65
2023/03/26 05:32:44;;;;;;;1.40;0.30;;;;;;;7.34;95.87;98179.47;4486027;31;20119;-65
2023/03/26 05:35:12;;;;;;;1.15;0.30;;;;;;;7.35;94.84;98175.91;4485874;31;20532;-65
2023/03/26 05:37:39;;;;;;;0.35;0.30;;;;;;;7.36;96.93;98178.41;4485891;31;20520;-65
2023/03/26 05:40:11;;;;;;;0.98;0.30;;;;;;;7.40;96.28;98169.38;4485686;31;20084;-65
2023/03/26 05:42:40;;;;;;;0.60;0.33;;;;;;;7.38;97.13;98180.88;4485919;31;20106;-65
2023/03/26 05:45:09;;;;;;;1.12;0.40;;;;;;;7.37;94.55;98179.22;4485934;31;20347;-65
2023/03/26 05:47:37;;;;;;;1.12;0.45;;;;;;;7.49;94.56;98177.34;4485151;31;20096;-65
2023/03/26 05:50:06;;;;;;;0.90;0.30;;;;;;;7.49;93.66;98178.16;4485577;31;20092;-65
2023/03/26 05:52:34;;;;;;;0.55;0.40;;;;;;;7.64;90.55;98176.84;4485647;31;20493;-65
2023/03/26 05:55:07;;;;;;;0.77;0.30;;;;;;;7.87;91.62;98181.81;4485701;31;20443;-65
2023/03/26 05:57:55;;;;;;;1.10;0.30;;;;;;;8.08;90.80;98176.50;4485636;31;20156;-65
2023/03/26 06:00:26;;;;;;;1.80;0.20;;;;;;;8.32;89.85;98185.72;4485729;31;20497;-65
2023/03/26 06:02:55;;;;;;;2.10;0.35;;;;;;;8.53;89.02;98177.78;4485785;31;20110;-65
2023/03/26 06:05:25;;;;;;;2.50;0.35;;;;;;;8.67;84.09;98177.34;4485791;31;20160;-65
2023/03/26 06:07:54;;;;;;;0.85;0.25;;;;;;;8.77;82.34;98172.13;4485700;31;20112;-65
2023/03/26 06:10:21;;;;;;;1.40;0.35;;;;;;;8.81;83.31;98168.28;4485299;32;20107;-65
2023/03/26 06:12:48;;;;;;;2.15;0.40;;;;;;;8.88;82.70;98171.13;4470089;32;20097;-65
2023/03/26 06:15:16;;;;;;;4.90;0.40;;;;;;;8.91;84.52;98173.44;4483278;32;20104;-65
2023/03/26 06:17:43;;;;;;;1.10;0.68;;;;;;;8.89;83.88;98162.34;4485473;31;20508;-65
2023/03/26 06:20:12;;;;;;;0.62;0.35;;;;;;;8.94;82.25;98170.56;4485692;31;20088;-65
2023/03/26 06:22:40;;;;;;;4.85;0.45;;;;;;;9.08;81.62;98168.47;4485529;32;20180;-65
2023/03/26 06:25:08;;;;;;;2.53;0.40;;;;;;;9.12;79.12;98170.66;4485587;31;20840;-65
2023/03/26 06:27:35;;;;;;;0.85;0.50;;;;;;;9.17;78.58;98181.47;4485476;31;20109;-65
2023/03/26 06:30:04;;;;;;;1.48;0.73;;;;;;;9.34;77.56;98181.72;4485474;31;20538;-65
2023/03/26 06:32:31;;;;;;;0.73;0.40;;;;;;;9.40;78.44;98181.13;4485504;31;20080;-64
2023/03/26 06:34:59;;;;;;;2.67;0.60;;;;;;;9.38;78.75;98190.91;4485183;32;20100;-65
2023/03/26 06:37:27;;;;;;;2.03;0.80;;;;;;;9.48;76.88;98193.47;4485362;31;20093;-64
2023/03/26 06:39:55;;;;;;;3.22;1.08;;;;;;;9.64;78.62;98180.59;4485460;31;20126;-64
2023/03/26 06:42:22;;;;;;;1.30;0.60;;;;;;;9.99;79.71;98196.53;4485304;31;20115;-64
2023/03/26 06:45:10;;;;;;;3.83;1.10;;;;;;;10.11;78.58;98190.94;4485648;31;20155;-64
2023/03/26 06:47:39;;;;;;;2.45;1.27;;;;;;;10.29;80.62;98197.97;4485302;31;20139;-64
2023/03/26 06:50:08;;;;;;;2.72;1.30;;;;;;;10.60;81.90;98202.87;4485258;31;20111;-64
2023/03/26 06:52:36;;;;;;;2.10;1.00;;;;;;;10.70;79.80;98206.19;4485242;31;20100;-64
2023/03/26 06:55:05;;;;;;;2.08;1.30;;;;;;;10.76;81.12;98207.41;4485383;31;20115;-65
2023/03/26 06:57:33;;;;;;;2.92;1.20;;;;;;;10.64;80.14;98201.56;4485258;32;20096;-64
2023/03/26 07:00:04;;;;;;;2.90;1.30;;;;;;;10.78;79.35;98213.31;4483928;31;20470;-64
2023/03/26 07:02:34;;;;;;;1.77;1.10;;;;;;;10.68;79.53;98223.88;4485371;31;20152;-64
2023/03/26 07:05:15;;;;;;;2.78;1.10;;;;;;;10.23;84.74;98214.28;4485326;31;20112;-64
2023/03/26 07:07:51;;;;;;;3.90;1.10;;;;;;;10.07;85.06;98221.00;4485271;32;20080;-64
2023/03/26 07:10:20;;;;;;;1.55;0.70;;;;;;;10.11;80.80;98217.13;4485316;32;20125;-65
2023/03/26 07:12:48;;;;;;;1.10;0.60;;;;;;;10.10;80.24;98217.25;4485299;31;20107;-64
2023/03/26 07:15:16;;;;;;;1.60;0.75;;;;;;;10.22;78.43;98213.47;4485151;31;20093;-65
2023/03/26 07:17:44;;;;;;;1.52;0.70;;;;;;;10.28;76.14;98219.91;4485019;31;20088;-64
2023/03/26 07:20:12;;;;;;;1.33;0.95;;;;;;;10.36;78.90;98209.53;4485266;31;20116;-64
2023/03/26 07:22:40;;;;;;;1.52;1.08;;;;;;;10.23;79.52;98198.56;4485063;31;20093;-65
2023/03/26 07:25:10;;;;;;;2.65;0.95;;;;;;;10.31;84.80;98206.53;4483588;32;20104;-64
2023/03/26 07:27:46;;;;;;;3.92;0.95;;;;;;;10.31;86.44;98209.13;4484955;31;20426;-64
2023/03/26 07:30:41;;;;;;;2.95;1.20;;;;;;;10.34;84.79;98211.47;4485028;32;20130;-65
2023/03/26 07:33:15;;;;;;;4.85;1.25;;;;;;;10.53;84.87;98213.09;4479629;32;20104;-65
2023/03/26 07:36:08;;;;;;;1.80;1.20;;;;;;;10.85;88.11;98210.91;4483589;32;20525;-64
2023/03/26 07:38:48;;;;;;;4.03;1.40;;;;;;;11.29;81.37;98203.00;4479011;32;20096;-64
2023/03/26 07:41:24;;;;;;;3.28;1.42;;;;;;;11.77;79.45;98206.81;4484542;31;20110;-65
2023/03/26 07:44:10;;;;;;;1.67;1.10;;;;;;;11.83;79.02;98208.00;4485039;31;20124;-65
2023/03/26 07:46:40;;;;;;;3.33;1.20;;;;;;;11.93;80.28;98200.84;4484924;31;20824;-65
2023/03/26 07:49:11;;;;;;;2.67;1.50;;;;;;;11.95;77.79;98205.94;4484727;31;20389;-65
2023/03/26 07:51:39;;;;;;;2.42;1.10;;;;;;;12.10;77.77;98212.22;4483511;32;20444;-65
2023/03/26 07:54:09;;;;;;;2.72;0.90;;;;;;;12.21;79.25;98206.62;4484777;31;20096;-65
2023/03/26 07:57:01;;;;;;;1.42;0.88;;;;;;;12.27;71.91;98204.38;4484549;31;20453;-65
2023/03/26 07:59:44;;;;;;;2.10;0.70;;;;;;;12.45;70.87;98210.28;4435253;32;20143;-65
2023/03/26 08:02:37;;;;;;;4.62;1.70;;;;;;;12.40;68.19;98216.03;4435427;32;20180;-65
2023/03/26 08:05:18;;;;;;;0.85;0.37;;;;;;;12.27;66.47;98212.25;4435153;32;20111;-65
2023/03/26 08:08:12;;;;;;;1.73;0.88;;;;;;;12.45;66.89;98205.03;4435413;32;20649;-65
2023/03/26 08:10:50;;;;;;;2.15;0.90;;;;;;;12.30;65.17;98206.66;4434802;32;20188;-65
2023/03/26 08:13:17;;;;;;;3.28;0.98;;;;;;;12.31;64.99;98205.66;4435462;32;20121;-65
2023/03/26 08:15:54;;;;;;;2.28;0.82;;;;;;;12.42;65.48;98200.13;4435110;32;20352;-65
2023/03/26 08:18:40;;;;;;;1.55;0.70;;;;;;;12.40;64.62;98199.47;4434792;32;20183;-65
2023/03/26 08:21:12;;;;;;;2.62;0.75;;;;;;;12.33;63.20;98195.84;4434912;32;20112;-65
2023/03/26 08:24:04;;;;;;;0.88;0.70;;;;;;;12.32;63.97;98199.44;4422545;32;20611;-65
2023/03/26 08:26:56;;;;;;;2.42;0.75;;;;;;;12.50;63.53;98191.41;4434829;32;20113;-65
2023/03/26 08:29:26;;;;;;;2.25;0.80;;;;;;;12.67;61.75;98200.13;4434816;32;20117;-65
2023/03/26 08:31:54;;;;;;;2.33;1.12;;;;;;;12.72;61.83;98197.84;4434849;32;20097;-65
2023/03/26 08:34:22;;;;;;;5.03;1.25;;;;;;;12.70;60.68;98195.37;4422272;32;20109;-65
2023/03/26 08:36:49;;;;;;;2.05;0.82;;;;;;;12.85;60.72;98189.44;4456768;32;20131;-65
2023/03/26 08:39:21;;;;;;;3.20;1.30;;;;;;;12.93;59.33;98190.25;4483744;31;20100;-65
2023/03/26 08:42:09;;;;;;;0.77;0.47;;;;;;;13.03;59.07;98191.88;4482431;32;20101;-65
2023/03/26 08:44:54;;;;;;;2.60;0.93;;;;;;;13.31;59.61;98190.50;4482560;32;20442;-65
2023/03/26 08:47:40;;;;;;;;;;;;;;;13.55;59.35;98188.81;4482475;32;20111;-65
2023/03/26 08:50:39;;;;;;;4.00;1.30;;;;;;;13.59;60.11;98182.19;4484206;31;20025;-65
2023/03/26 08:53:24;;;;;;;3.35;0.70;;;;;;;13.94;58.38;98185.31;4483817;31;20153;-65
2023/03/26 08:55:59;;;;;;;1.27;0.60;;;;;;;13.73;58.58;98180.69;4484087;31;20106;-65
2023/03/26 08:58:41;;;;;;;;;;;;;;;13.93;58.50;98170.53;4482978;32;20076;-65
2023/03/26 09:01:10;;;;;;;2.58;0.55;;;;;;;14.10;59.57;98171.25;4483811;31;19976;-65
2023/03/26 09:03:47;;;;;;;1.85;0.62;;;;;;;14.21;58.19;98177.94;4483661;31;20446;-65
2023/03/26 09:06:53;;;;;;;1.73;0.50;;;;;;;14.12;58.14;98171.87;4483920;31;20084;-65
2023/03/26 09:09:51;;;;;;;1.17;0.75;;;;;;;14.09;58.47;98172.22;4483621;31;20111;-65
2023/03/26 09:12:43;;;;;;;1.20;0.75;;;;;;;14.18;60.08;98170.38;4483258;31;20172;-65
2023/03/26 09:15:19;;;;;;;1.20;0.85;;;;;;;14.24;60.58;98167.03;4483452;31;20530;-65
2023/03/26 09:18:04;;;;;;;2.55;1.15;;;;;;;14.32;60.39;98163.53;4483096;32;20446;-65
2023/03/26 09:20:49;;;;;;;;;;;;;;;13.93;61.71;98165.25;4483574;31;20139;-65
2023/03/26 09:23:17;;;;;;;2.20;0.95;;;;;;;14.09;62.60;98161.69;4484492;32;19980;-65
2023/03/26 09:26:03;;;;;;;1.08;0.85;;;;;;;14.25;61.94;98167.88;4485487;31;20148;-65
2023/03/26 09:28:52;;;;;;;1.10;0.70;;;;;;;14.24;61.36;98156.50;4484209;32;20178;-65
2023/03/26 09:31:41;;;;;;;1.67;0.82;;;;;;;14.33;61.61;98149.37;4485560;31;20085;-65
2023/03/26 09:34:29;;;;;;;2.58;1.00;;;;;;;14.18;60.61;98152.75;4485483;31;20595;-65
2023/03/26 09:37:34;;;;;;;3.28;0.68;;;;;;;13.91;63.69;98146.16;4484363;32;20104;-65
2023/03/26 09:40:37;;;;;;;1.70;0.70;;;;;;;13.77;58.99;98131.13;4485620;31;20114;-65
2023/03/26 09:43:42;;;;;;;3.03;0.70;;;;;;;13.86;59.83;98127.44;4485450;31;20092;-65
2023/03/26 09:46:12;;;;;;;;;;;;;;;14.02;56.37;98121.28;4485987;32;20120;-65
2023/03/26 09:49:06;;;;;;;1.58;0.88;;;;;;;13.97;57.70;98116.53;4485605;31;20039;-65
2023/03/26 09:51:59;;;;;;;0.93;0.73;;;;;;;14.12;58.29;98110.50;4478048;32;20084;-65
2023/03/26 09:54:51;;;;;;;1.27;0.57;;;;;;;14.34;57.61;98108.84;4484244;32;20089;-65
2023/03/26 09:57:27;;;;;;;1.40;0.47;;;;;;;14.40;55.21;98099.41;4485724;31;20118;-65
2023/03/26 10:00:16;;;;;;;1.08;0.40;;;;;;;14.22;56.97;98103.19;4485523;31;20167;-65
2023/03/26 10:03:05;;;;;;;0.80;0.50;;;;;;;14.16;54.98;98093.34;4485254;32;20118;-65
2023/03/26 10:05:44;;;;;;;0.50;0.40;;;;;;;13.83;58.04;98098.84;4485349;31;20099;-65
2023/03/26 10:08:28;;;;;;;0.65;0.40;;;;;;;13.41;59.87;98103.50;4485356;31;20093;-65
2023/03/26 10:11:04;;;;;;;0.77;0.50;;;;;;;13.09;68.38;98114.94;4485458;31;20153;-65
2023/03/26 10:13:43;;;;;;;1.75;0.22;;;;;;;12.34;78.92;98111.63;4484366;32;20091;-65
2023/03/26 10:16:48;;;;;;;0.70;0.50;;;;;;;11.98;90.42;98098.00;4485372;31;20107;-65
2023/03/26 10:19:40;;;;;;;2.42;1.60;;;;;;;11.71;85.62;98098.06;4485492;32;20131;-65
2023/03/26 10:22:14;;;;;;;1.80;0.50;;;;;;;11.68;86.89;98094.94;4485239;31;20470;-65
2023/03/26 10:25:02;;;;;;;4.30;0.80;;;;;;;11.81;84.06;98084.81;4471077;32;20096;-65
2023/03/26 10:28:03;;;;;;;1.12;0.75;;;;;;;12.19;85.23;98077.31;4485060;31;20088;-65
2023/03/26 10:30:47;;;;;;;1.20;0.55;;;;;;;12.99;87.90;98067.81;4485383;32;20127;-65
2023/03/26 10:33:39;;;;;;;1.55;0.70;;;;;;;13.48;84.33;98061.53;4485356;31;20080;-65
2023/03/26 10:36:37;;;;;;;0.55;0.50;;;;;;;13.44;75.16;98060.25;4485507;31;20100;-65
2023/03/26 10:39:08;;;;;;;2.15;0.45;;;;;;;13.23;75.42;98052.91;4423191;32;20121;-65
2023/03/26 10:41:58;;;;;;;2.20;0.60;;;;;;;13.31;69.70;98048.44;4436070;32;20541;-64
2023/03/26 10:44:44;;;;;;;1.67;0.70;;;;;;;12.94;69.45;98044.66;4423404;32;20145;-64
2023/03/26 10:47:17;;;;;;;1.60;0.60;;;;;;;13.17;66.26;98036.03;4436046;32;20192;-65
2023/03/26 10:50:15;;;;;;;1.20;0.68;;;;;;;13.39;68.36;98028.38;4436075;32;20443;-65
2023/03/26 10:53:37;;;;;;;3.60;1.12;;;;;;;13.25;68.22;98022.81;4424014;32;20153;-65
2023/03/26 10:56:18;;;;;;;2.22;1.02;;;;;;;13.01;72.90;98015.06;4387580;32;20692;-65
2023/03/26 10:58:46;;;;;;;2.08;1.10;;;;;;;12.95;73.44;98012.13;4386098;32;20452;-65
2023/03/26 11:01:31;;;;;;;3.10;0.95;;;;;;;13.04;74.92;98019.97;4390293;32;20133;-65
2023/03/26 11:04:14;;;;;;;2.58;1.10;;;;;;;13.17;78.76;98022.88;4390108;32;20128;-65
2023/03/26 11:07:05;;;;;;;1.87;0.80;;;;;;;13.37;74.10;98004.87;4390204;32;20118;-64
2023/03/26 11:09:45;;;;;;;1.30;0.60;;;;;;;13.33;73.50;98008.81;4390208;32;20472;-65
2023/03/26 11:12:25;;;;;;;1.37;0.70;;;;;;;13.00;72.87;97997.66;4374977;32;20129;-65
2023/03/26 11:15:04;;;;;;;1.83;0.77;;;;;;;13.02;74.06;97988.59;4378768;32;20170;-65
2023/03/26 11:17:49;;;;;;;1.30;0.70;;;;;;;12.92;70.82;97988.78;4435489;32;20098;-65
2023/03/26 11:20:29;;;;;;;2.55;0.55;;;;;;;13.10;72.87;97983.28;4436138;32;20574;-65
2023/03/26 11:23:23;;;;;;;0.70;0.45;;;;;;;13.16;65.78;97979.16;4436064;32;20097;-65
2023/03/26 11:26:10;;;;;;;1.70;0.70;;;;;;;13.53;61.97;97979.44;4433901;32;20524;-65
2023/03/26 11:28:56;;;;;;;0.93;0.57;;;;;;;13.89;60.99;97977.03;4423036;32;20089;-65
2023/03/26 11:32:03;;;;;;;0.73;0.52;;;;;;;14.10;61.05;97991.34;4463957;32;20096;-65
2023/03/26 11:34:40;;;;;;;1.55;0.60;;;;;;;14.26;59.73;97967.47;4483500;32;20092;-65
2023/03/26 11:37:16;;;;;;;4.25;0.80;;;;;;;14.50;63.99;97952.38;4483651;32;20155;-65
2023/03/26 11:39:48;;;;;;;1.67;0.70;;;;;;;14.31;59.90;97951.94;4483475;32;20097;-65
2023/03/26 11:42:18;;;;;;;1.00;0.60;;;;;;;14.05;60.60;97935.72;4485015;31;20124;-65
2023/03/26 11:44:53;;;;;;;0.85;0.50;;;;;;;13.87;56.12;97934.25;4484648;31;20128;-65
2023/03/26 11:47:25;;;;;;;0.55;0.30;;;;;;;13.93;55.08;97930.06;4482687;32;20495;-65
2023/03/26 11:49:54;;;;;;;1.10;0.40;;;;;;;14.29;54.95;97918.84;4483465;32;20096;-65
2023/03/26 11:52:22;;;;;;;2.47;0.40;;;;;;;14.86;52.10;97922.66;4483393;32;20151;-65
2023/03/26 11:54:49;;;;;;;0.40;0.30;;;;;;;15.68;50.87;97920.59;4484563;32;20153;-65
2023/03/26 11:57:25;;;;;;;1.37;0.47;;;;;;;16.22;46.15;97905.97;4484448;31;20100;-65
2023/03/26 11:59:56;;;;;;;0.40;0.30;;;;;;;16.70;43.41;97913.94;4483171;32;20184;-65
2023/03/26 12:02:34;;;;;;;0.40;0.30;;;;;;;16.99;42.61;97896.97;4483336;32;20092;-65
2023/03/26 12:05:10;;;;;;;0.90;0.40;;;;;;;17.47;41.55;97908.44;4484397;32;20084;-65
2023/03/26 12:07:46;;;;;;;0.25;0.20;;;;;;;17.40;39.34;97892.56;4484449;31;20536;-65
2023/03/26 12:10:41;;;;;;;0.75;0.20;;;;;;;17.61;38.86;97888.88;4484655;31;20591;-65
2023/03/26 12:13:27;;;;;;;1.27;0.20;;;;;;;17.77;37.81;97892.94;4453596;32;20089;-65